Погода Эенханана 2 недели

Окаванго, Намибия

03 - 16 марта
  • 03марта
    Сегодня
    +22°
    +36°
    Ясно и безоблачно
    ВремяПогодаТемператураВлажностьДавлениеВетер, м/сВероятность осадков
    02:00Практически безоблачно+25°C43 %670 мм2.7 м/с5 %
    05:00Ясно и безоблачно+23°C53 %670 мм2.3 м/с5 %
    08:00Небольшая облачность+24°C52 %671 мм2.4 м/с5 %
    11:00Практически безоблачно+31°C36 %673 мм2.0 м/с5 %
    14:00Ясно и безоблачно+34°C24 %672 мм0.4 м/с5 %
    17:00Практически безоблачно+35°C22 %671 мм1.6 м/с5 %
    20:00Практически безоблачно+31°C26 %670 мм1.7 м/с5 %
    23:00Ясно и безоблачно+29°C31 %670 мм2.7 м/с5 %
  • 04марта
    Понедельник
    +21°
    +37°
    Ясно и безоблачно
    ВремяПогодаТемператураВлажностьДавлениеВетер, м/сВероятность осадков
    02:00Практически безоблачно+27°C47 %670 мм5.7 м/с5 %
    05:00Ясно и безоблачно+25°C49 %670 мм4.5 м/с5 %
    08:00Ясно и безоблачно+24°C46 %671 мм3.6 м/с5 %
    11:00Ясно и безоблачно+30°C25 %672 мм4.0 м/с5 %
    14:00Ясно и безоблачно+36°C17 %671 мм2.9 м/с5 %
    17:00Практически безоблачно+37°C15 %669 мм1.6 м/с5 %
    20:00Небольшая облачность+33°C21 %668 мм1.6 м/с5 %
    23:00Ясно и безоблачно+30°C21 %669 мм4.6 м/с5 %
  • 05марта
    Вторник
    +20°
    +36°
    Ясно и безоблачно
    ВремяПогодаТемператураВлажностьДавлениеВетер, м/сВероятность осадков
    02:00Ясно и безоблачно+27°C32 %670 мм4.9 м/с5 %
    05:00Ясно и безоблачно+23°C43 %670 мм1.9 м/с5 %
    08:00Ясно и безоблачно+23°C40 %671 мм2.7 м/с5 %
    11:00Ясно и безоблачно+30°C23 %672 мм4.1 м/с5 %
    14:00Ясно и безоблачно+34°C16 %671 мм4.4 м/с5 %
    17:00Ясно и безоблачно+36°C15 %669 мм3.9 м/с5 %
    20:00Ясно и безоблачно+32°C19 %669 мм2.7 м/с5 %
    23:00Небольшая облачность+29°C24 %669 мм2.9 м/с5 %
  • 06марта
    Среда
    +21°
    +37°
    Ясно и безоблачно
    ВремяПогодаТемператураВлажностьДавлениеВетер, м/сВероятность осадков
    02:00Небольшая облачность+26°C22 %669 мм5.4 м/с5 %
    05:00Небольшая облачность+22°C41 %669 мм1.9 м/с5 %
    08:00Ясно и безоблачно+22°C36 %670 мм2.0 м/с5 %
    11:00Ясно и безоблачно+29°C19 %672 мм1.6 м/с5 %
    14:00Ясно и безоблачно+34°C14 %671 мм2.6 м/с5 %
    17:00Ясно и безоблачно+36°C14 %670 мм2.8 м/с5 %
    20:00Ясно и безоблачно+32°C19 %669 мм1.7 м/с5 %
    23:00Ясно и безоблачно+28°C20 %671 мм4.7 м/с5 %
  • 07марта
    Четверг
    +20°
    +37°
    Ясно и безоблачно
    ВремяПогодаТемператураВлажностьДавлениеВетер, м/сВероятность осадков
    02:00Ясно и безоблачно+25°C22 %670 мм4.5 м/с5 %
    05:00Ясно и безоблачно+22°C29 %669 мм4.1 м/с5 %
    08:00Ясно и безоблачно+21°C28 %671 мм2.3 м/с5 %
    11:00Ясно и безоблачно+29°C19 %673 мм2.5 м/с5 %
    14:00Ясно и безоблачно+34°C13 %671 мм2.7 м/с5 %
    17:00Ясно и безоблачно+36°C11 %669 мм3.1 м/с5 %
    20:00Ясно и безоблачно+32°C16 %668 мм2.4 м/с5 %
    23:00Ясно и безоблачно+28°C22 %669 мм2.8 м/с5 %
Мы используем cookies
Соглашаюсь